Pont Aven — FNPN — position and weather

sailwx.info

Track history (hours):
 
Tides and Currents Weather Stations Pressure Air Temp Water Temp Dewpoint Dewpoint Depression Visibility Wind Speed Wind Dir Waves Ship Positions

Pont Aven

Last reported at 2017-Jun-27 22:09 UTC. Time now 2017-Jun-27 22:38 UTC.
Position N 49°37' W 003°25'.

Length 185 m; beam 31 m.

Type: Passenger vessel. MMSI: 228183600.

Date/timePositionNaut miles runAvg speedWind from/ knotsBaromVisibWave heightAir tempDewpointWater temp
2017-Jun-27 22:09N 49°37' W 003°25'322.0
2017-Jun-27 22:00N 49°39' W 003°22'1121.7
2017-Jun-27 21:30N 49°47' W 003°10'1121.6
2017-Jun-27 21:00N 49°55' W 002°58'1121.3
2017-Jun-27 20:30N 50°01' W 002°44'2922.5
2017-Jun-27 19:13N 50°13' W 002°03'523.6
2017-Jun-27 19:00N 50°16' W 001°57'1224.0
2017-Jun-27 18:29N 50°22' W 001°40'1724.8
2017-Jun-27 17:47N 50°30' W 001°16'725.2
2017-Jun-27 17:30N 50°33' W 001°06'1020.5
2017-Jun-27 17:00N 50°42' W 000°58'816.0
2017-Jun-27 16:30N 50°48' W 001°07'1 1.9
2017-Jun-27 16:00N 50°49' W 001°06'0 0.0
2017-Jun-27 15:30N 50°49' W 001°06'0 0.0
2017-Jun-27 15:00N 50°49' W 001°06'0 0.0
2017-Jun-27 14:00N 50°49' W 001°06'0 0.0
2017-Jun-27 13:30N 50°49' W 001°06'0 0.9
2017-Jun-27 13:01N 50°49' W 001°07'611.7
2017-Jun-27 12:31N 50°43' W 001°03'816.7
2017-Jun-27 12:01N 50°35' W 001°07'2720.6
2017-Jun-27 10:41N 50°18' W 001°41'421.0
2017-Jun-27 10:30N 50°16' W 001°45'1021.3
2017-Jun-27 10:00N 50°09' W 001°57'1121.3
2017-Jun-27 09:30N 50°02' W 002°11'1826.3
2017-Jun-27 08:49N 49°53' W 002°35'1225.7
2017-Jun-27 08:21N 49°47' W 002°51'1225.2
2017-Jun-27 07:53N 49°40' W 003°06'1125.2
2017-Jun-27 07:27N 49°33' W 003°19'4725.2
2017-Jun-27 05:34N 48°60' W 004°11'825.2
2017-Jun-27 05:15N 48°55' W 004°20'725.2
2017-Jun-27 04:57N 48°49' W 004°28'1125.5
2017-Jun-27 04:31N 48°42' W 004°41'1325.0
2017-Jun-27 04:00N 48°33' W 004°54'918.9
2017-Jun-27 03:31N 48°26' W 005°03'1122.3
2017-Jun-27 03:00N 48°16' W 005°11'1325.4
2017-Jun-27 02:30N 48°03' W 005°11'1325.0
2017-Jun-27 02:00N 47°51' W 005°06'1423.9
2017-Jun-27 01:25N 47°37' W 005°02'1023.8
2017-Jun-27 01:00N 47°27' W 004°59'1223.8
2017-Jun-27 00:31N 47°16' W 004°54'2823.5
2017-Jun-26 23:20N 46°49' W 004°46'923.4
2017-Jun-26 22:57N 46°40' W 004°44'67 2.7
2017-Jun-25 22:38N 47°45' W 005°05'324.7
2017-Jun-25 22:30N 47°48' W 005°06'1224.8
2017-Jun-25 22:01N 48°01' W 005°10'1224.6
2017-Jun-25 21:30N 48°13' W 005°09'1224.2
2017-Jun-25 21:00N 48°25' W 005°04'918.1
2017-Jun-25 20:30N 48°32' W 004°57'1224.4
2017-Jun-25 20:01N 48°44' W 004°53'1223.5
2017-Jun-25 19:31N 48°56' W 004°48'1122.6
2017-Jun-25 19:00N 49°06' W 004°43'1222.2
2017-Jun-25 18:28N 49°18' W 004°37'1022.2
2017-Jun-25 18:00N 49°28' W 004°33'1422.3
2017-Jun-25 17:23N 49°41' W 004°27'1322.7
2017-Jun-25 16:50N 49°53' W 004°22'922.8
2017-Jun-25 16:25N 50°02' W 004°18'1123.1
2017-Jun-25 15:57N 50°13' W 004°13'818.8
2017-Jun-25 15:30N 50°20' W 004°09'1 2.6
2017-Jun-25 15:00N 50°22' W 004°09'0 0.0
2017-Jun-25 14:00N 50°22' W 004°09'0 0.0
2017-Jun-25 13:30N 50°22' W 004°09'0 0.0
2017-Jun-25 13:01N 50°22' W 004°09'0 0.0
2017-Jun-25 12:31N 50°22' W 004°09'1 2.6
2017-Jun-25 12:00N 50°20' W 004°09'713.5
2017-Jun-25 11:31N 50°14' W 004°09'1422.8
2017-Jun-25 10:55N 50°00' W 004°06'1422.5
2017-Jun-25 10:18N 49°47' W 004°01'1322.5
2017-Jun-25 09:44N 49°35' W 003°58'522.8
2017-Jun-25 09:31N 49°29' W 003°57'4622.6
2017-Jun-25 07:29N 48°44' W 003°57'0 0.5
2017-Jun-25 06:44N 48°43' W 003°58'0 0.0
2017-Jun-25 06:27N 48°43' W 003°58'0 0.0
2017-Jun-25 04:37N 48°43' W 003°58'0 1.6
2017-Jun-25 04:31N 48°43' W 003°58'712.1
2017-Jun-25 03:58N 48°49' W 004°01'920.2
2017-Jun-25 03:30N 48°55' W 004°12'1019.4
2017-Jun-25 03:00N 49°01' W 004°23'1019.3
2017-Jun-25 02:31N 49°07' W 004°35'1019.1
2017-Jun-25 02:00N 49°13' W 004°46'1019.7
2017-Jun-25 01:30N 49°20' W 004°58'1019.6
2017-Jun-25 01:00N 49°26' W 005°09'1019.5
2017-Jun-25 00:30N 49°33' W 005°20'1019.4
2017-Jun-25 00:00N 49°40' W 005°30'1019.3
2017-Jun-24 23:30N 49°47' W 005°41'1019.6
2017-Jun-24 23:00N 49°53' W 005°53'3020.6
2017-Jun-24 21:32N 50°21' W 006°06'120.9
2017-Jun-24 21:30N 50°22' W 006°07'1121.3
2017-Jun-24 21:00N 50°30' W 006°19'1121.2
2017-Jun-24 20:28N 50°38' W 006°32'1021.2
2017-Jun-24 20:00N 50°45' W 006°42'5420.8
2017-Jun-24 17:24N 51°24' W 007°42'820.1
2017-Jun-24 17:00N 51°30' W 007°51'1020.6
2017-Jun-24 16:30N 51°37' W 008°03'1020.2
2017-Jun-24 16:00N 51°44' W 008°13'612.3
2017-Jun-24 15:30N 51°50' W 008°16'2 4.5
2017-Jun-24 15:00N 51°50' W 008°19'0 0.0
2017-Jun-24 14:00N 51°50' W 008°19'0 0.0
2017-Jun-24 13:30N 51°50' W 008°19'0 0.0
2017-Jun-24 13:00N 51°50' W 008°19'0 0.0
2017-Jun-24 12:30N 51°50' W 008°19'0 0.0
2017-Jun-24 12:00N 51°50' W 008°19'0 0.0
2017-Jun-24 11:30N 51°50' W 008°19'0 0.0
2017-Jun-24 11:00N 51°50' W 008°19'0 0.0
2017-Jun-24 10:30N 51°50' W 008°19'0 0.0
2017-Jun-24 10:00N 51°50' W 008°19'0 0.0
2017-Jun-24 09:30N 51°50' W 008°19'0 0.0
2017-Jun-24 09:00N 51°50' W 008°19'1 1.4
2017-Jun-24 08:30N 51°50' W 008°19'4 7.4
2017-Jun-24 08:00N 51°47' W 008°16'816.2
2017-Jun-24 07:31N 51°41' W 008°08'1020.8
2017-Jun-24 07:00N 51°34' W 007°56'1020.5
2017-Jun-24 06:30N 51°26' W 007°44'1020.4
2017-Jun-24 06:00N 51°19' W 007°32'208 8.6
2017-Jun-23 05:39N 48°43' W 003°58'1 7.4
2017-Jun-23 05:30N 48°44' W 003°57'1415.8
2017-Jun-23 04:36N 48°58' W 003°60'217.2
2017-Jun-23 04:31N 48°60' W 003°60'4517.4
2017-Jun-23 01:56N 49°44' W 004°12'816.9
2017-Jun-23 01:26N 49°52' W 004°14'716.9
2017-Jun-23 01:00N 49°60' W 004°16'817.0
2017-Jun-23 00:30N 50°08' W 004°17'917.1
2017-Jun-23 00:00N 50°17' W 004°17'1 1.3
2017-Jun-22 23:30N 50°17' W 004°17'0 0.8
2017-Jun-22 23:00N 50°17' W 004°18'0 0.5
2017-Jun-22 22:30N 50°17' W 004°18'0 0.4
2017-Jun-22 22:00N 50°16' W 004°18'0 0.5
2017-Jun-22 21:30N 50°16' W 004°18'0 0.6
2017-Jun-22 21:00N 50°16' W 004°19'6 7.1
2017-Jun-22 20:09N 50°19' W 004°10'110.1
2017-Jun-22 20:01N 50°20' W 004°09'1 2.9
2017-Jun-22 19:30N 50°22' W 004°09'0 0.0
2017-Jun-22 19:01N 50°22' W 004°09'0 0.0
2017-Jun-22 18:31N 50°22' W 004°09'0 0.0
2017-Jun-22 18:01N 50°22' W 004°09'0 0.0
2017-Jun-22 17:31N 50°22' W 004°09'0 0.0
2017-Jun-22 17:01N 50°22' W 004°09'0 0.0
2017-Jun-22 16:31N 50°22' W 004°09'0 0.0
2017-Jun-22 16:00N 50°22' W 004°09'0 0.0
2017-Jun-22 15:30N 50°22' W 004°09'0 0.4
2017-Jun-22 15:00N 50°22' W 004°09'1313.4
2017-Jun-22 14:01N 50°09' W 004°15'4722.1
2017-Jun-22 11:53N 49°23' W 004°31'1422.2
2017-Jun-22 11:14N 49°10' W 004°41'922.2
2017-Jun-22 10:50N 49°01' W 004°45'922.1
2017-Jun-22 10:25N 48°53' W 004°49'922.3
2017-Jun-22 09:59N 48°44' W 004°53'1122.4
2017-Jun-22 09:31N 48°33' W 004°57'917.4
2017-Jun-22 09:01N 48°26' W 005°03'1121.8
2017-Jun-22 08:30N 48°15' W 005°08'1122.6
2017-Jun-22 08:01N 48°04' W 005°10'1122.3
2017-Jun-22 07:30N 47°53' W 005°06'1122.7
2017-Jun-22 07:01N 47°42' W 005°03'1223.2
2017-Jun-22 06:30N 47°31' W 004°59'1122.9
2017-Jun-22 06:01N 47°20' W 004°55'1223.1
2017-Jun-22 05:31N 47°08' W 004°52'1322.6
2017-Jun-22 04:57N 46°56' W 004°50'1022.3
2017-Jun-22 04:30N 46°46' W 004°46'1122.7
2017-Jun-22 04:00N 46°35' W 004°42'1223.1
2017-Jun-22 03:29N 46°23' W 004°38'1122.7
2017-Jun-22 02:59N 46°12' W 004°35'1123.2
2017-Jun-22 02:30N 46°01' W 004°32'1223.1
2017-Jun-22 02:01N 45°50' W 004°28'1223.5
2017-Jun-22 01:30N 45°39' W 004°25'1223.8
2017-Jun-22 01:00N 45°27' W 004°21'1223.6
2017-Jun-22 00:31N 45°15' W 004°18'1223.7
2017-Jun-22 00:01N 45°04' W 004°14'1223.7
2017-Jun-21 23:30N 44°52' W 004°11'1223.6
2017-Jun-21 23:01N 44°41' W 004°08'1223.3
2017-Jun-21 22:31N 44°29' W 004°04'1223.0
2017-Jun-21 22:00N 44°18' W 004°01'1223.2
2017-Jun-21 21:30N 44°06' W 003°58'16 2.0
2017-Jun-21 13:22N 44°22' W 004°01'823.2
2017-Jun-21 13:00N 44°30' W 004°04'1323.4
2017-Jun-21 12:26N 44°43' W 004°08'1023.5
2017-Jun-21 12:00N 44°53' W 004°11'1223.2
2017-Jun-21 11:31N 45°05' W 004°14'1223.3
2017-Jun-21 11:00N 45°16' W 004°17'1223.3
2017-Jun-21 10:29N 45°28' W 004°21'2723.5
2017-Jun-21 09:20N 45°55' W 004°28'823.6
2017-Jun-21 09:00N 46°02' W 004°30'2523.9
2017-Jun-21 07:57N 46°27' W 004°37'1123.7
2017-Jun-21 07:30N 46°37' W 004°41'1523.3
2017-Jun-21 06:52N 46°52' W 004°46'823.7
2017-Jun-21 06:30N 47°00' W 004°48'1223.6
2017-Jun-21 06:01N 47°12' W 004°51'1224.1
2017-Jun-21 05:30N 47°23' W 004°54'1224.0
2017-Jun-21 05:00N 47°35' W 004°59'1224.2
2017-Jun-21 04:31N 47°47' W 005°04'1224.6
2017-Jun-21 04:01N 47°58' W 005°09'1224.2
2017-Jun-21 03:30N 48°11' W 005°09'1223.9
2017-Jun-21 03:01N 48°22' W 005°06'917.3
2017-Jun-21 02:31N 48°29' W 004°58'1122.9
2017-Jun-21 02:01N 48°39' W 004°48'1121.3
2017-Jun-21 01:31N 48°45' W 004°36'1122.0
2017-Jun-21 01:00N 48°54' W 004°25'1122.3
2017-Jun-21 00:31N 49°02' W 004°14'1122.8
2017-Jun-21 00:00N 49°10' W 004°02'1823.5
2017-Jun-20 23:14N 49°23' W 003°42'524.1
2017-Jun-20 23:00N 49°27' W 003°36'1224.5
2017-Jun-20 22:31N 49°35' W 003°22'1224.6
2017-Jun-20 22:01N 49°45' W 003°10'1224.3
2017-Jun-20 21:30N 49°54' W 002°58'1224.1
2017-Jun-20 21:01N 50°00' W 002°42'1325.0
2017-Jun-20 20:31N 50°05' W 002°24'1224.5
2017-Jun-20 20:01N 50°11' W 002°07'1223.9
2017-Jun-20 19:31N 50°17' W 001°51'1823.0
2017-Jun-20 18:44N 50°26' W 001°27'522.3
2017-Jun-20 18:30N 50°28' W 001°20'1121.7
2017-Jun-20 18:00N 50°35' W 001°06'918.3
2017-Jun-20 17:30N 50°43' W 000°59'714.4
2017-Jun-20 17:00N 50°48' W 001°07'1 2.1
2017-Jun-20 16:30N 50°49' W 001°06'0 0.0
2017-Jun-20 16:00N 50°49' W 001°06'0 0.0
2017-Jun-20 15:30N 50°49' W 001°06'0 0.0
2017-Jun-20 15:00N 50°49' W 001°06'0 0.0
2017-Jun-20 14:30N 50°49' W 001°06'1 0.9
2017-Jun-20 13:30N 50°48' W 001°07'611.9
2017-Jun-20 13:00N 50°43' W 001°01'815.6
2017-Jun-20 12:30N 50°36' W 001°03'1021.1
2017-Jun-20 12:00N 50°29' W 001°16'1121.2
2017-Jun-20 11:30N 50°22' W 001°28'1121.1
2017-Jun-20 11:00N 50°14' W 001°41'1020.6
2017-Jun-20 10:30N 50°08' W 001°53'1020.5
2017-Jun-20 10:00N 50°03' W 002°07'1120.4
2017-Jun-20 09:28N 49°57' W 002°22'1321.0
2017-Jun-20 08:51N 49°53' W 002°40'821.5
2017-Jun-20 08:30N 49°50' W 002°52'1121.6
2017-Jun-20 07:59N 49°43' W 003°05'1121.9
2017-Jun-20 07:30N 49°35' W 003°15'1122.0
2017-Jun-20 07:00N 49°28' W 003°28'3722.1
2017-Jun-20 05:20N 49°02' W 004°09'822.3
2017-Jun-20 04:59N 48°57' W 004°18'1122.2
2017-Jun-20 04:30N 48°50' W 004°30'1122.2
2017-Jun-20 04:00N 48°42' W 004°42'1122.2
2017-Jun-20 03:30N 48°34' W 004°53'1019.3
2017-Jun-20 03:00N 48°26' W 005°02'1019.9
2017-Jun-20 02:30N 48°17' W 005°08'1222.8
2017-Jun-20 02:00N 48°06' W 005°10'1122.5
2017-Jun-20 01:30N 47°55' W 005°09'1122.8
2017-Jun-20 01:00N 47°43' W 005°06'1223.3
2017-Jun-20 00:30N 47°32' W 005°02'2023.1
2017-Jun-19 23:40N 47°13' W 004°56'523.0
2017-Jun-19 23:26N 47°08' W 004°54'1223.3
2017-Jun-19 22:54N 46°56' W 004°49'922.9
2017-Jun-19 22:31N 46°47' W 004°46'1223.1
2017-Jun-19 22:00N 46°36' W 004°43'1223.1
2017-Jun-19 21:31N 46°25' W 004°39'1223.8
2017-Jun-19 21:01N 46°13' W 004°35'1223.3
2017-Jun-19 20:31N 46°01' W 004°32'1223.3
2017-Jun-19 20:01N 45°50' W 004°29'12010.5
2017-Jun-19 08:31N 43°53' W 003°52'022.9
2017-Jun-19 08:30N 43°53' W 003°52'1523.4
2017-Jun-19 07:52N 44°08' W 003°56'923.5
2017-Jun-19 07:30N 44°16' W 003°59'1123.2
2017-Jun-19 07:00N 44°27' W 004°02'1323.2
2017-Jun-19 06:27N 44°40' W 004°06'10923.3
2017-Jun-19 01:46N 46°26' W 004°42'723.4
2017-Jun-19 01:28N 46°33' W 004°43'1424.0
2017-Jun-19 00:53N 46°47' W 004°45'924.3
2017-Jun-19 00:31N 46°56' W 004°47'1424.0
2017-Jun-18 23:56N 47°10' W 004°51'2924.0
2017-Jun-18 22:43N 47°38' W 005°01'523.9
2017-Jun-18 22:30N 47°43' W 005°03'1223.4
2017-Jun-18 22:00N 47°54' W 005°07'1322.6
2017-Jun-18 21:27N 48°07' W 005°10'1022.9
2017-Jun-18 21:01N 48°17' W 005°08'1020.3
2017-Jun-18 20:30N 48°26' W 005°03'918.1
2017-Jun-18 20:01N 48°35' W 004°59'1122.7
2017-Jun-18 19:31N 48°46' W 004°53'1223.4
2017-Jun-18 19:01N 48°57' W 004°47'1523.6
2017-Jun-18 18:22N 49°11' W 004°42'1323.8
2017-Jun-18 17:49N 49°24' W 004°37'1123.8
2017-Jun-18 17:21N 49°35' W 004°32'1023.6
2017-Jun-18 16:55N 49°44' W 004°26'1023.6
2017-Jun-18 16:30N 49°54' W 004°22'1223.4
2017-Jun-18 16:00N 50°05' W 004°17'1223.1
2017-Jun-18 15:31N 50°16' W 004°12'612.2
2017-Jun-18 15:01N 50°22' W 004°09'0 0.3
2017-Jun-18 14:00N 50°22' W 004°09'0 0.0
2017-Jun-18 13:30N 50°22' W 004°09'0 0.0
2017-Jun-18 13:00N 50°22' W 004°09'0 0.0
2017-Jun-18 12:30N 50°22' W 004°09'1 2.8
2017-Jun-18 12:01N 50°20' W 004°09'816.4
2017-Jun-18 11:31N 50°12' W 004°10'1223.8
2017-Jun-18 11:01N 50°00' W 004°08'1223.7
2017-Jun-18 10:29N 49°48' W 004°05'1223.8
2017-Jun-18 10:00N 49°37' W 004°04'1223.8
2017-Jun-18 09:30N 49°25' W 004°02'1323.8
2017-Jun-18 08:57N 49°12' W 003°60'2323.5
2017-Jun-18 07:59N 48°49' W 003°57'5 1.4
2017-Jun-18 04:24N 48°44' W 003°57'616.1
2017-Jun-18 04:01N 48°50' W 004°02'1020.1
2017-Jun-18 03:31N 48°56' W 004°15'1020.2
2017-Jun-18 03:00N 49°02' W 004°27'1020.2
2017-Jun-18 02:31N 49°08' W 004°39'1020.0
2017-Jun-18 02:00N 49°15' W 004°50'1019.9
2017-Jun-18 01:30N 49°22' W 005°02'1020.0
2017-Jun-18 01:00N 49°28' W 005°13'3220.3
2017-Jun-17 23:24N 49°49' W 005°51'820.6
2017-Jun-17 23:01N 49°55' W 006°01'1019.8
2017-Jun-17 22:31N 50°05' W 006°02'  
Track history (hours):
 
Tides and Currents Weather Stations Pressure Air Temp Water Temp Dewpoint Dewpoint Depression Visibility Wind Speed Wind Dir Waves Ship Positions

Pont Aven

Last reported at 2017-Jun-27 22:09 UTC. Time now 2017-Jun-27 22:38 UTC.
Position N 49°37' W 003°25'.

Length 185 m; beam 31 m.

Type: Passenger vessel. MMSI: 228183600.

Date/timePositionNaut miles runAvg speedWind from/ knotsBaromVisibWave heightAir tempDewpointWater temp
2017-Jun-27 22:09N 49°37' W 003°25'322.0
2017-Jun-27 22:00N 49°39' W 003°22'1121.7
2017-Jun-27 21:30N 49°47' W 003°10'1121.6
2017-Jun-27 21:00N 49°55' W 002°58'1121.3
2017-Jun-27 20:30N 50°01' W 002°44'2922.5
2017-Jun-27 19:13N 50°13' W 002°03'523.6
2017-Jun-27 19:00N 50°16' W 001°57'1224.0
2017-Jun-27 18:29N 50°22' W 001°40'1724.8
2017-Jun-27 17:47N 50°30' W 001°16'725.2
2017-Jun-27 17:30N 50°33' W 001°06'1020.5
2017-Jun-27 17:00N 50°42' W 000°58'816.0
2017-Jun-27 16:30N 50°48' W 001°07'1 1.9
2017-Jun-27 16:00N 50°49' W 001°06'0 0.0
2017-Jun-27 15:30N 50°49' W 001°06'0 0.0
2017-Jun-27 15:00N 50°49' W 001°06'0 0.0
2017-Jun-27 14:00N 50°49' W 001°06'0 0.0
2017-Jun-27 13:30N 50°49' W 001°06'0 0.9
2017-Jun-27 13:01N 50°49' W 001°07'611.7
2017-Jun-27 12:31N 50°43' W 001°03'816.7
2017-Jun-27 12:01N 50°35' W 001°07'2720.6
2017-Jun-27 10:41N 50°18' W 001°41'421.0
2017-Jun-27 10:30N 50°16' W 001°45'1021.3
2017-Jun-27 10:00N 50°09' W 001°57'1121.3
2017-Jun-27 09:30N 50°02' W 002°11'1826.3
2017-Jun-27 08:49N 49°53' W 002°35'1225.7
2017-Jun-27 08:21N 49°47' W 002°51'1225.2
2017-Jun-27 07:53N 49°40' W 003°06'1125.2
2017-Jun-27 07:27N 49°33' W 003°19'4725.2
2017-Jun-27 05:34N 48°60' W 004°11'825.2
2017-Jun-27 05:15N 48°55' W 004°20'725.2
2017-Jun-27 04:57N 48°49' W 004°28'1125.5
2017-Jun-27 04:31N 48°42' W 004°41'1325.0
2017-Jun-27 04:00N 48°33' W 004°54'918.9
2017-Jun-27 03:31N 48°26' W 005°03'1122.3
2017-Jun-27 03:00N 48°16' W 005°11'1325.4
2017-Jun-27 02:30N 48°03' W 005°11'1325.0
2017-Jun-27 02:00N 47°51' W 005°06'1423.9
2017-Jun-27 01:25N 47°37' W 005°02'1023.8
2017-Jun-27 01:00N 47°27' W 004°59'1223.8
2017-Jun-27 00:31N 47°16' W 004°54'2823.5
2017-Jun-26 23:20N 46°49' W 004°46'923.4
2017-Jun-26 22:57N 46°40' W 004°44'67 2.7
2017-Jun-25 22:38N 47°45' W 005°05'324.7
2017-Jun-25 22:30N 47°48' W 005°06'1224.8
2017-Jun-25 22:01N 48°01' W 005°10'1224.6
2017-Jun-25 21:30N 48°13' W 005°09'1224.2
2017-Jun-25 21:00N 48°25' W 005°04'918.1
2017-Jun-25 20:30N 48°32' W 004°57'1224.4
2017-Jun-25 20:01N 48°44' W 004°53'1223.5
2017-Jun-25 19:31N 48°56' W 004°48'1122.6
2017-Jun-25 19:00N 49°06' W 004°43'1222.2
2017-Jun-25 18:28N 49°18' W 004°37'1022.2
2017-Jun-25 18:00N 49°28' W 004°33'1422.3
2017-Jun-25 17:23N 49°41' W 004°27'1322.7
2017-Jun-25 16:50N 49°53' W 004°22'922.8
2017-Jun-25 16:25N 50°02' W 004°18'1123.1
2017-Jun-25 15:57N 50°13' W 004°13'818.8
2017-Jun-25 15:30N 50°20' W 004°09'1 2.6
2017-Jun-25 15:00N 50°22' W 004°09'0 0.0
2017-Jun-25 14:00N 50°22' W 004°09'0 0.0
2017-Jun-25 13:30N 50°22' W 004°09'0 0.0
2017-Jun-25 13:01N 50°22' W 004°09'0 0.0
2017-Jun-25 12:31N 50°22' W 004°09'1 2.6
2017-Jun-25 12:00N 50°20' W 004°09'713.5
2017-Jun-25 11:31N 50°14' W 004°09'1422.8
2017-Jun-25 10:55N 50°00' W 004°06'1422.5
2017-Jun-25 10:18N 49°47' W 004°01'1322.5
2017-Jun-25 09:44N 49°35' W 003°58'522.8
2017-Jun-25 09:31N 49°29' W 003°57'4622.6
2017-Jun-25 07:29N 48°44' W 003°57'0 0.5
2017-Jun-25 06:44N 48°43' W 003°58'0 0.0
2017-Jun-25 06:27N 48°43' W 003°58'0 0.0
2017-Jun-25 04:37N 48°43' W 003°58'0 1.6
2017-Jun-25 04:31N 48°43' W 003°58'712.1
2017-Jun-25 03:58N 48°49' W 004°01'920.2
2017-Jun-25 03:30N 48°55' W 004°12'1019.4
2017-Jun-25 03:00N 49°01' W 004°23'1019.3
2017-Jun-25 02:31N 49°07' W 004°35'1019.1
2017-Jun-25 02:00N 49°13' W 004°46'1019.7
2017-Jun-25 01:30N 49°20' W 004°58'1019.6
2017-Jun-25 01:00N 49°26' W 005°09'1019.5
2017-Jun-25 00:30N 49°33' W 005°20'1019.4
2017-Jun-25 00:00N 49°40' W 005°30'1019.3
2017-Jun-24 23:30N 49°47' W 005°41'1019.6
2017-Jun-24 23:00N 49°53' W 005°53'3020.6
2017-Jun-24 21:32N 50°21' W 006°06'120.9
2017-Jun-24 21:30N 50°22' W 006°07'1121.3
2017-Jun-24 21:00N 50°30' W 006°19'1121.2
2017-Jun-24 20:28N 50°38' W 006°32'1021.2
2017-Jun-24 20:00N 50°45' W 006°42'5420.8
2017-Jun-24 17:24N 51°24' W 007°42'820.1
2017-Jun-24 17:00N 51°30' W 007°51'1020.6
2017-Jun-24 16:30N 51°37' W 008°03'1020.2
2017-Jun-24 16:00N 51°44' W 008°13'612.3
2017-Jun-24 15:30N 51°50' W 008°16'2 4.5
2017-Jun-24 15:00N 51°50' W 008°19'0 0.0
2017-Jun-24 14:00N 51°50' W 008°19'0 0.0
2017-Jun-24 13:30N 51°50' W 008°19'0 0.0
2017-Jun-24 13:00N 51°50' W 008°19'0 0.0
2017-Jun-24 12:30N 51°50' W 008°19'0 0.0
2017-Jun-24 12:00N 51°50' W 008°19'0 0.0
2017-Jun-24 11:30N 51°50' W 008°19'0 0.0
2017-Jun-24 11:00N 51°50' W 008°19'0 0.0
2017-Jun-24 10:30N 51°50' W 008°19'0 0.0
2017-Jun-24 10:00N 51°50' W 008°19'0 0.0
2017-Jun-24 09:30N 51°50' W 008°19'0 0.0
2017-Jun-24 09:00N 51°50' W 008°19'1 1.4
2017-Jun-24 08:30N 51°50' W 008°19'4 7.4
2017-Jun-24 08:00N 51°47' W 008°16'816.2
2017-Jun-24 07:31N 51°41' W 008°08'1020.8
2017-Jun-24 07:00N 51°34' W 007°56'1020.5
2017-Jun-24 06:30N 51°26' W 007°44'1020.4
2017-Jun-24 06:00N 51°19' W 007°32'208 8.6
2017-Jun-23 05:39N 48°43' W 003°58'1 7.4
2017-Jun-23 05:30N 48°44' W 003°57'1415.8
2017-Jun-23 04:36N 48°58' W 003°60'217.2
2017-Jun-23 04:31N 48°60' W 003°60'4517.4
2017-Jun-23 01:56N 49°44' W 004°12'816.9
2017-Jun-23 01:26N 49°52' W 004°14'716.9
2017-Jun-23 01:00N 49°60' W 004°16'817.0
2017-Jun-23 00:30N 50°08' W 004°17'917.1
2017-Jun-23 00:00N 50°17' W 004°17'1 1.3
2017-Jun-22 23:30N 50°17' W 004°17'0 0.8
2017-Jun-22 23:00N 50°17' W 004°18'0 0.5
2017-Jun-22 22:30N 50°17' W 004°18'0 0.4
2017-Jun-22 22:00N 50°16' W 004°18'0 0.5
2017-Jun-22 21:30N 50°16' W 004°18'0 0.6
2017-Jun-22 21:00N 50°16' W 004°19'6 7.1
2017-Jun-22 20:09N 50°19' W 004°10'110.1
2017-Jun-22 20:01N 50°20' W 004°09'1 2.9
2017-Jun-22 19:30N 50°22' W 004°09'0 0.0
2017-Jun-22 19:01N 50°22' W 004°09'0 0.0
2017-Jun-22 18:31N 50°22' W 004°09'0 0.0
2017-Jun-22 18:01N 50°22' W 004°09'0 0.0
2017-Jun-22 17:31N 50°22' W 004°09'0 0.0
2017-Jun-22 17:01N 50°22' W 004°09'0 0.0
2017-Jun-22 16:31N 50°22' W 004°09'0 0.0
2017-Jun-22 16:00N 50°22' W 004°09'0 0.0
2017-Jun-22 15:30N 50°22' W 004°09'0 0.4
2017-Jun-22 15:00N 50°22' W 004°09'1313.4
2017-Jun-22 14:01N 50°09' W 004°15'4722.1
2017-Jun-22 11:53N 49°23' W 004°31'1422.2
2017-Jun-22 11:14N 49°10' W 004°41'922.2
2017-Jun-22 10:50N 49°01' W 004°45'922.1
2017-Jun-22 10:25N 48°53' W 004°49'922.3
2017-Jun-22 09:59N 48°44' W 004°53'1122.4
2017-Jun-22 09:31N 48°33' W 004°57'917.4
2017-Jun-22 09:01N 48°26' W 005°03'1121.8
2017-Jun-22 08:30N 48°15' W 005°08'1122.6
2017-Jun-22 08:01N 48°04' W 005°10'1122.3
2017-Jun-22 07:30N 47°53' W 005°06'1122.7
2017-Jun-22 07:01N 47°42' W 005°03'1223.2
2017-Jun-22 06:30N 47°31' W 004°59'1122.9
2017-Jun-22 06:01N 47°20' W 004°55'1223.1
2017-Jun-22 05:31N 47°08' W 004°52'1322.6
2017-Jun-22 04:57N 46°56' W 004°50'1022.3
2017-Jun-22 04:30N 46°46' W 004°46'1122.7
2017-Jun-22 04:00N 46°35' W 004°42'1223.1
2017-Jun-22 03:29N 46°23' W 004°38'1122.7
2017-Jun-22 02:59N 46°12' W 004°35'1123.2
2017-Jun-22 02:30N 46°01' W 004°32'1223.1
2017-Jun-22 02:01N 45°50' W 004°28'1223.5
2017-Jun-22 01:30N 45°39' W 004°25'1223.8
2017-Jun-22 01:00N 45°27' W 004°21'1223.6
2017-Jun-22 00:31N 45°15' W 004°18'1223.7
2017-Jun-22 00:01N 45°04' W 004°14'1223.7
2017-Jun-21 23:30N 44°52' W 004°11'1223.6
2017-Jun-21 23:01N 44°41' W 004°08'1223.3
2017-Jun-21 22:31N 44°29' W 004°04'1223.0
2017-Jun-21 22:00N 44°18' W 004°01'1223.2
2017-Jun-21 21:30N 44°06' W 003°58'16 2.0
2017-Jun-21 13:22N 44°22' W 004°01'823.2
2017-Jun-21 13:00N 44°30' W 004°04'1323.4
2017-Jun-21 12:26N 44°43' W 004°08'1023.5
2017-Jun-21 12:00N 44°53' W 004°11'1223.2
2017-Jun-21 11:31N 45°05' W 004°14'1223.3
2017-Jun-21 11:00N 45°16' W 004°17'1223.3
2017-Jun-21 10:29N 45°28' W 004°21'2723.5
2017-Jun-21 09:20N 45°55' W 004°28'823.6
2017-Jun-21 09:00N 46°02' W 004°30'2523.9
2017-Jun-21 07:57N 46°27' W 004°37'1123.7
2017-Jun-21 07:30N 46°37' W 004°41'1523.3
2017-Jun-21 06:52N 46°52' W 004°46'823.7
2017-Jun-21 06:30N 47°00' W 004°48'1223.6
2017-Jun-21 06:01N 47°12' W 004°51'1224.1
2017-Jun-21 05:30N 47°23' W 004°54'1224.0
2017-Jun-21 05:00N 47°35' W 004°59'1224.2
2017-Jun-21 04:31N 47°47' W 005°04'1224.6
2017-Jun-21 04:01N 47°58' W 005°09'1224.2
2017-Jun-21 03:30N 48°11' W 005°09'1223.9
2017-Jun-21 03:01N 48°22' W 005°06'917.3
2017-Jun-21 02:31N 48°29' W 004°58'1122.9
2017-Jun-21 02:01N 48°39' W 004°48'1121.3
2017-Jun-21 01:31N 48°45' W 004°36'1122.0
2017-Jun-21 01:00N 48°54' W 004°25'1122.3
2017-Jun-21 00:31N 49°02' W 004°14'1122.8
2017-Jun-21 00:00N 49°10' W 004°02'1823.5
2017-Jun-20 23:14N 49°23' W 003°42'524.1
2017-Jun-20 23:00N 49°27' W 003°36'1224.5
2017-Jun-20 22:31N 49°35' W 003°22'1224.6
2017-Jun-20 22:01N 49°45' W 003°10'1224.3
2017-Jun-20 21:30N 49°54' W 002°58'1224.1
2017-Jun-20 21:01N 50°00' W 002°42'1325.0
2017-Jun-20 20:31N 50°05' W 002°24'1224.5
2017-Jun-20 20:01N 50°11' W 002°07'1223.9
2017-Jun-20 19:31N 50°17' W 001°51'1823.0
2017-Jun-20 18:44N 50°26' W 001°27'522.3
2017-Jun-20 18:30N 50°28' W 001°20'1121.7
2017-Jun-20 18:00N 50°35' W 001°06'918.3
2017-Jun-20 17:30N 50°43' W 000°59'714.4
2017-Jun-20 17:00N 50°48' W 001°07'1 2.1
2017-Jun-20 16:30N 50°49' W 001°06'0 0.0
2017-Jun-20 16:00N 50°49' W 001°06'0 0.0
2017-Jun-20 15:30N 50°49' W 001°06'0 0.0
2017-Jun-20 15:00N 50°49' W 001°06'0 0.0
2017-Jun-20 14:30N 50°49' W 001°06'1 0.9
2017-Jun-20 13:30N 50°48' W 001°07'611.9
2017-Jun-20 13:00N 50°43' W 001°01'815.6
2017-Jun-20 12:30N 50°36' W 001°03'1021.1
2017-Jun-20 12:00N 50°29' W 001°16'1121.2
2017-Jun-20 11:30N 50°22' W 001°28'1121.1
2017-Jun-20 11:00N 50°14' W 001°41'1020.6
2017-Jun-20 10:30N 50°08' W 001°53'1020.5
2017-Jun-20 10:00N 50°03' W 002°07'1120.4
2017-Jun-20 09:28N 49°57' W 002°22'1321.0
2017-Jun-20 08:51N 49°53' W 002°40'821.5
2017-Jun-20 08:30N 49°50' W 002°52'1121.6
2017-Jun-20 07:59N 49°43' W 003°05'1121.9
2017-Jun-20 07:30N 49°35' W 003°15'1122.0
2017-Jun-20 07:00N 49°28' W 003°28'3722.1
2017-Jun-20 05:20N 49°02' W 004°09'822.3
2017-Jun-20 04:59N 48°57' W 004°18'1122.2
2017-Jun-20 04:30N 48°50' W 004°30'1122.2
2017-Jun-20 04:00N 48°42' W 004°42'1122.2
2017-Jun-20 03:30N 48°34' W 004°53'1019.3
2017-Jun-20 03:00N 48°26' W 005°02'1019.9
2017-Jun-20 02:30N 48°17' W 005°08'1222.8
2017-Jun-20 02:00N 48°06' W 005°10'1122.5
2017-Jun-20 01:30N 47°55' W 005°09'1122.8
2017-Jun-20 01:00N 47°43' W 005°06'1223.3
2017-Jun-20 00:30N 47°32' W 005°02'2023.1
2017-Jun-19 23:40N 47°13' W 004°56'523.0
2017-Jun-19 23:26N 47°08' W 004°54'1223.3
2017-Jun-19 22:54N 46°56' W 004°49'922.9
2017-Jun-19 22:31N 46°47' W 004°46'1223.1
2017-Jun-19 22:00N 46°36' W 004°43'1223.1
2017-Jun-19 21:31N 46°25' W 004°39'1223.8
2017-Jun-19 21:01N 46°13' W 004°35'1223.3
2017-Jun-19 20:31N 46°01' W 004°32'1223.3
2017-Jun-19 20:01N 45°50' W 004°29'12010.5
2017-Jun-19 08:31N 43°53' W 003°52'022.9
2017-Jun-19 08:30N 43°53' W 003°52'1523.4
2017-Jun-19 07:52N 44°08' W 003°56'923.5
2017-Jun-19 07:30N 44°16' W 003°59'1123.2
2017-Jun-19 07:00N 44°27' W 004°02'1323.2
2017-Jun-19 06:27N 44°40' W 004°06'10923.3
2017-Jun-19 01:46N 46°26' W 004°42'723.4
2017-Jun-19 01:28N 46°33' W 004°43'1424.0
2017-Jun-19 00:53N 46°47' W 004°45'924.3
2017-Jun-19 00:31N 46°56' W 004°47'1424.0
2017-Jun-18 23:56N 47°10' W 004°51'2924.0
2017-Jun-18 22:43N 47°38' W 005°01'523.9
2017-Jun-18 22:30N 47°43' W 005°03'1223.4
2017-Jun-18 22:00N 47°54' W 005°07'1322.6
2017-Jun-18 21:27N 48°07' W 005°10'1022.9
2017-Jun-18 21:01N 48°17' W 005°08'1020.3
2017-Jun-18 20:30N 48°26' W 005°03'918.1
2017-Jun-18 20:01N 48°35' W 004°59'1122.7
2017-Jun-18 19:31N 48°46' W 004°53'1223.4
2017-Jun-18 19:01N 48°57' W 004°47'1523.6
2017-Jun-18 18:22N 49°11' W 004°42'1323.8
2017-Jun-18 17:49N 49°24' W 004°37'1123.8
2017-Jun-18 17:21N 49°35' W 004°32'1023.6
2017-Jun-18 16:55N 49°44' W 004°26'1023.6
2017-Jun-18 16:30N 49°54' W 004°22'1223.4
2017-Jun-18 16:00N 50°05' W 004°17'1223.1
2017-Jun-18 15:31N 50°16' W 004°12'612.2
2017-Jun-18 15:01N 50°22' W 004°09'0 0.3
2017-Jun-18 14:00N 50°22' W 004°09'0 0.0
2017-Jun-18 13:30N 50°22' W 004°09'0 0.0
2017-Jun-18 13:00N 50°22' W 004°09'0 0.0
2017-Jun-18 12:30N 50°22' W 004°09'1 2.8
2017-Jun-18 12:01N 50°20' W 004°09'816.4
2017-Jun-18 11:31N 50°12' W 004°10'1223.8
2017-Jun-18 11:01N 50°00' W 004°08'1223.7
2017-Jun-18 10:29N 49°48' W 004°05'1223.8
2017-Jun-18 10:00N 49°37' W 004°04'1223.8
2017-Jun-18 09:30N 49°25' W 004°02'1323.8
2017-Jun-18 08:57N 49°12' W 003°60'2323.5
2017-Jun-18 07:59N 48°49' W 003°57'5 1.4
2017-Jun-18 04:24N 48°44' W 003°57'616.1
2017-Jun-18 04:01N 48°50' W 004°02'1020.1
2017-Jun-18 03:31N 48°56' W 004°15'1020.2
2017-Jun-18 03:00N 49°02' W 004°27'1020.2
2017-Jun-18 02:31N 49°08' W 004°39'1020.0
2017-Jun-18 02:00N 49°15' W 004°50'1019.9
2017-Jun-18 01:30N 49°22' W 005°02'1020.0
2017-Jun-18 01:00N 49°28' W 005°13'3220.3
2017-Jun-17 23:24N 49°49' W 005°51'820.6
2017-Jun-17 23:01N 49°55' W 006°01'1019.8
2017-Jun-17 22:31N 50°05' W 006°02'  

Dump ship's entire track history